x

Yucatan Basin - 120 Nm Ese Of Cozumel, Mx (42056) Wave Buoy

10:50 - Sat 4th Jul 2015 All times are CDT. -5 hours from GMT.

  • Sig Wave height 4.6ft
  • Swell Direction
  • Peak Period 10s
  • Average Period 5s
  • Wind
    18mph, 22mph gusts
  • Sea Temp 84°f
  • Air Temp 84°f
  • Sea Pressure 1015.9mb
  •  Yucatan Basin - 120 Nm Ese Of Cozumel, Mx
  •  Yucatan Basin - 120 Nm Ese Of Cozumel, Mx

More Historic Weather Station data

Upgrade to MSW Pro to gain access to the past 30 days of data for over 8000 Wavebouys and Weather Stations around the globe.

Join Pro

Comparision Forecast

View Surf forecast
   
sam. 07/04 10:50 4.5ft 10s 5s 18 22 mph 1015.9mb 84f 84f
9:50 4.5ft 10s 5s 18 22 mph 1015.7mb 84f 84f
8:50 4.5ft 10s 5s 18 22 mph 1015.3mb 85f 84f
7:50 4.5ft 10s 5s 18 22 mph 1014.6mb 85f 84f
6:50 4ft 10s 5s 16 18 mph 1014.5mb 85f 84f
5:50 4ft 8s 5s 16 18 mph 1014.3mb 85f 84f
4:50 4ft 10s 5s 16 18 mph 1014.2mb 85f 85f
3:50 4ft 8s  -  16 18 mph 1014.6mb 85f 85f
2:50 4.5ft 9s 6s 13 16 mph 1014.9mb 85f 84f
1:50 4ft 9s 5s 11 13 mph 1015.3mb 85f 84f
12:50 4.5ft 10s 6s 13 18 mph 1015.7mb 85f 84f
11:50 4.5ft 8s 5s 13 16 mph 1016mb 85f 84f
10:50 4.5ft 9s 5s 13 16 mph 1016.3mb 84f 84f
9:50 4ft 7s 5s 13 16 mph 1016.2mb 84f 84f
8:50 4ft 7s 5s 13 16 mph 1016mb 84f 84f
7:50 4.5ft 7s 5s 16
mph
1015.5mb 84f 83f
6:50 4.5ft 9s 5s 13 16 mph 1015.2mb 84f 83f
5:50 4.5ft 9s 5s 13 16 mph 1015mb 84f 83f
4:50 4.5ft 7s 6s 13 16 mph 1014.9mb 84f 83f
3:50 4ft 7s 5s 13 16 mph 1015mb 84f 83f
2:50 4.5ft 9s 5s 13 16 mph 1015.1mb 84f 84f
1:50 4.5ft 9s 5s 13 16 mph 1015.6mb 84f 84f
12:50 4ft 9s 5s 13 16 mph 1016.1mb 84f 84f
ven. 07/03 11:50 4ft 9s 5s 13 16 mph 1016.3mb 84f 84f
10:50 4ft 10s 5s 13 18 mph 1016.1mb 84f 84f
9:50 4ft 9s 5s 16 18 mph 1015.6mb 84f 84f
8:50 4ft 8s 5s 16 18 mph 1015mb 84f 84f
7:50 3.5ft 6s 5s 16 18 mph 1014.5mb 84f 84f
6:50 4ft 7s 5s 13 16 mph 1014.4mb 84f 84f
5:50 4ft 8s 5s 13 18 mph 1013.7mb 85f 84f
4:50 3.5ft 6s 5s 11 13 mph 1013.8mb 85f 84f
3:50 4ft 8s 5s 13 16 mph 1014mb 85f 84f
2:50 4ft 7s 5s 13 16 mph 1014.3mb 85f 84f
1:50 4ft 5s 5s 13 16 mph 1014.6mb 84f 84f
12:50 4ft 8s 5s 16 18 mph 1015.1mb 84f 84f
11:50 4.5ft 6s 5s 16 18 mph 1015.3mb 84f 84f
10:50 4ft 6s 5s 16 20 mph 1015.4mb 84f 84f
9:50 3.5ft 8s 5s 16 20 mph 1015.3mb 84f 84f
8:50 4ft 7s 5s 18 20 mph 1015.1mb 84f 84f
7:50 4ft 7s 5s 18 20 mph 1015mb 84f 84f
6:50 4ft 5s 5s 16 18 mph 1014.6mb 84f 83f
5:50 3.5ft 6s 5s 13 16 mph 1014mb 84f 83f
4:50 4ft 6s 5s 11 13 mph 1013.8mb 84f 83f
3:50 4ft 8s 5s 16
mph
1013.6mb 84f 83f
2:50 4ft 7s 5s 13 16 mph 1013.8mb 84f 83f
1:50 3.5ft 8s 5s 11 13 mph 1014.5mb 84f 83f
12:50 3.5ft 8s 5s 13 16 mph 1015.2mb 84f 84f
jeu. 07/02 11:50 4.5ft 7s 5s 16 18 mph 1016mb 84f 84f
10:50 4.5ft 8s 5s 16 18 mph 1016.3mb 84f 84f
9:50 4ft 7s 5s 13 16 mph 1016mb 84f 84f
8:50 4.5ft 7s 5s 16 18 mph 1015.2mb 84f 84f
7:50 4.5ft 8s 5s 16 18 mph 1015mb 84f 84f
6:50 4.5ft 8s 5s 18 20 mph 1014.4mb 84f 84f
5:50 4ft 8s 5s 13 16 mph 1014.5mb 84f 85f
4:50 4.5ft 8s 5s 16 18 mph 1014.1mb 84f 84f
3:50 4.5ft 8s 5s 13 16 mph 1014.3mb 85f 84f
2:50 4.5ft 6s 5s 13 16 mph 1014.6mb 84f 84f
1:50 4.5ft 5s 5s 13 16 mph 1015.2mb 84f 84f
12:50 4.5ft 6s 5s 16 18 mph 1015.7mb 84f 84f
11:50 4.5ft 6s 5s 16 18 mph 1016.2mb 84f 83f
10:50 4.5ft 5s 5s 18 22 mph 1016.1mb 84f 83f
9:50 4.5ft 7s 5s 18 20 mph 1015.7mb 84f 83f
8:50 4.5ft 7s 5s 18 22 mph 1015.8mb 84f 81f
7:50 4.5ft 6s 5s 18 22 mph 1015.5mb 84f 83f
6:50 3.5ft 7s 5s 16 20 mph 1015mb 84f 83f
5:50 4ft 6s 5s 13 18 mph 1014.4mb 84f 83f
4:50 4.5ft 6s 5s 13 16 mph 1014.4mb 84f 83f
3:50 4.5ft 6s 5s 16 18 mph 1014.8mb 84f 83f
2:50 4ft 8s 5s 13 16 mph 1015.1mb 84f 83f
1:50 4.5ft 6s 5s 16 18 mph 1015.2mb 84f 84f
12:50 4ft 6s 5s 16 18 mph 1015.8mb 84f 84f
mer. 07/01 11:50 3.5ft 5s 5s 2 7 mph 1016.4mb 84f 80f
10:50 4ft 5s 5s 9 11 mph 1016.6mb 84f 81f
9:50 3.5ft 5s 5s 16 18 mph 1015.9mb 84f 84f
8:50 3.5ft 6s 5s 13 16 mph 1015.5mb 84f 84f
7:50 4ft 6s 5s 13 16 mph 1014.9mb 84f 84f
6:50 4ft 7s 5s 13 16 mph 1014.6mb 84f 85f
5:50 3.5ft 5s 4s 16 20 mph 1014.1mb 84f 85f
4:50 4ft 5s 5s 16 18 mph 1014.5mb 84f 85f
3:50 4ft 5s 5s 16 18 mph 1015.1mb 84f 85f
2:50 4ft 8s 5s 18 20 mph 1015mb 84f 85f
1:50 3.5ft 9s 5s 13 16 mph 1015.4mb 84f 84f
12:50 4ft 8s 5s 11 13 mph 1016.1mb 84f 82f
11:50 3.5ft 7s 5s 27 38 mph 1016.3mb 84f 81f
10:50 3.5ft 7s 5s 18 22 mph 1016.4mb 84f 84f
9:50 3.5ft 6s 5s 16 18 mph 1016.3mb 84f 84f
8:50 3.5ft 9s 5s 16 20 mph 1016.4mb 84f 84f
7:50 3.5ft 8s 5s 16 18 mph 1016.3mb 84f 84f
6:50 3.5ft 6s 5s 16 18 mph 1016.2mb 84f 84f
4:50 3.5ft 9s 5s 13 16 mph 1015.7mb 84f 84f